Řízení letového provozu České republiky
Letiste: LKNA Aktualizace: 20.01.2017 22:08:07  UTC
 METAR LKNA 20.01. 22:00 ...
METAR LKNA 202200Z 36006KT CAVOK M07/M12 Q1032=
 TAF LKNA 20.01. 17:00 ...
TAF LKNA 201700Z 2018/2118 VRB02KT CAVOK      BECMG 2021/2023 2000 BR NSC      BECMG 2107/2109 CAVOK=